Mehoopany, Pennsylvania
Current Conditions -  °F | °C
As of 11:54 AM on Sunday 21 Dec 2014 (Local Time) from KAVP Reporting Station
Overcast Overcast  
Wind Chill: 25°   Ceiling: 2400
Heat Index: 31°   Visibility: 10mi
Dew Point: 19°   Wind: 6mph
Humidity: 61%   Direction: 350°N
Pressure: 30.28"   Gusts: NA
Location:  41.56°N, 76.06°W
Report Text: KAVP 211654Z AUTO 35005KT 10SM OVC024 M01/M07 A3028 RMK AO2 SLP263 T10061072
Loading
Personal Weather Stations






























Interactive Weather Map New forecast layout! Learn more

10-Day Weather Forecast

Advertisements
Track Severe Weather on mobile